createdAt,value
2018-08-23T00:00:36.833Z,19.50
2018-08-23T00:03:14.651Z,19.60
2018-08-23T00:05:50.561Z,19.60
2018-08-23T00:08:19.378Z,19.70
2018-08-23T00:10:48.265Z,19.70
2018-08-23T00:13:16.530Z,19.70
2018-08-23T00:15:44.745Z,19.70
2018-08-23T00:18:12.933Z,19.60
2018-08-23T00:20:41.165Z,19.50
2018-08-23T00:23:09.424Z,19.30
2018-08-23T00:25:38.214Z,19.20
2018-08-23T00:28:06.794Z,19.10
2018-08-23T00:30:35.307Z,19.00
2018-08-23T00:33:04.398Z,18.90
2018-08-23T00:35:33.558Z,18.80
2018-08-23T00:38:02.363Z,18.70
2018-08-23T00:40:34.385Z,18.60
2018-08-23T00:43:06.669Z,18.60
2018-08-23T00:45:34.898Z,18.60
2018-08-23T00:48:03.076Z,18.50
2018-08-23T00:51:06.468Z,18.40
2018-08-23T00:53:36.005Z,18.30
2018-08-23T00:56:17.485Z,18.30
2018-08-23T00:58:51.089Z,18.20
2018-08-23T01:01:19.286Z,18.20
2018-08-23T01:03:47.475Z,18.10
2018-08-23T01:06:20.438Z,18.00
2018-08-23T01:08:48.677Z,18.00
2018-08-23T01:11:17.794Z,18.00
2018-08-23T01:13:46.698Z,18.10
2018-08-23T01:16:15.861Z,18.10
2018-08-23T01:18:44.069Z,18.00
2018-08-23T01:21:13.870Z,17.90
2018-08-23T01:23:42.774Z,17.90
2018-08-23T01:26:11.016Z,17.80
2018-08-23T01:28:39.158Z,17.80
2018-08-23T01:31:21.595Z,17.70
2018-08-23T01:33:53.193Z,17.60
2018-08-23T01:36:25.814Z,17.50
2018-08-23T01:38:54.142Z,17.40
2018-08-23T01:41:22.338Z,17.30
2018-08-23T01:43:50.514Z,17.20
2018-08-23T01:46:19.673Z,17.20
2018-08-23T01:48:53.851Z,17.20
2018-08-23T01:51:22.577Z,17.20
2018-08-23T01:53:51.366Z,17.10
2018-08-23T01:56:19.529Z,17.10
2018-08-23T01:58:47.701Z,17.20
2018-08-23T02:01:18.217Z,17.20
2018-08-23T02:03:46.502Z,17.10
2018-08-23T02:06:15.500Z,17.10
2018-08-23T02:08:44.819Z,16.90
2018-08-23T02:11:13.082Z,16.80
2018-08-23T02:13:41.281Z,16.80
2018-08-23T02:16:09.478Z,16.70
2018-08-23T02:18:38.798Z,16.70
2018-08-23T02:21:11.446Z,16.70
2018-08-23T02:23:48.688Z,16.60
2018-08-23T02:26:16.886Z,16.60
2018-08-23T02:28:47.462Z,16.60
2018-08-23T02:31:15.661Z,16.60
2018-08-23T02:33:43.849Z,16.60
2018-08-23T02:36:18.354Z,16.50
2018-08-23T02:38:50.930Z,16.40
2018-08-23T02:41:19.126Z,16.30
2018-08-23T02:43:47.549Z,16.30
2018-08-23T02:46:15.949Z,16.30
2018-08-23T02:48:44.329Z,16.20
2018-08-23T02:51:12.602Z,16.20
2018-08-23T02:53:42.091Z,16.20
2018-08-23T02:56:12.158Z,16.20
2018-08-23T02:58:46.980Z,16.20
2018-08-23T03:01:15.282Z,16.20
2018-08-23T03:03:59.086Z,16.30
2018-08-23T03:06:30.934Z,16.30
2018-08-23T03:08:59.074Z,16.30
2018-08-23T03:11:27.626Z,16.20
2018-08-23T03:13:57.350Z,16.20
2018-08-23T03:16:27.506Z,16.10
2018-08-23T03:18:55.705Z,16.10
2018-08-23T03:21:23.910Z,16.10
2018-08-23T03:23:52.086Z,16.10
2018-08-23T03:26:20.230Z,16.10
2018-08-23T03:28:48.439Z,16.00
2018-08-23T03:31:16.599Z,16.00
2018-08-23T03:33:44.822Z,15.90
2018-08-23T03:36:13.154Z,15.80
2018-08-23T03:38:41.310Z,15.80
2018-08-23T03:41:09.506Z,15.70
2018-08-23T03:43:37.702Z,15.70
2018-08-23T03:46:06.142Z,15.70
2018-08-23T03:48:34.354Z,15.80
2018-08-23T03:51:02.585Z,15.80
2018-08-23T03:53:45.497Z,15.70
2018-08-23T03:56:13.963Z,15.80
2018-08-23T03:58:42.207Z,15.80
2018-08-23T04:01:12.865Z,15.80
2018-08-23T04:03:41.095Z,15.90
2018-08-23T04:06:35.826Z,15.90
2018-08-23T04:09:06.546Z,15.90
2018-08-23T04:11:34.744Z,15.90
2018-08-23T04:14:02.923Z,16.00
2018-08-23T04:16:31.734Z,15.90
2018-08-23T04:18:59.902Z,15.90
2018-08-23T04:21:29.182Z,15.80
2018-08-23T04:23:57.359Z,15.80
2018-08-23T04:26:26.374Z,15.80
2018-08-23T04:28:55.102Z,15.80
2018-08-23T04:31:23.317Z,15.90
2018-08-23T04:33:51.516Z,15.90
2018-08-23T04:36:28.087Z,15.80
2018-08-23T04:39:01.457Z,15.80
2018-08-23T04:41:30.512Z,15.80
2018-08-23T04:44:02.415Z,15.90
2018-08-23T04:46:32.685Z,15.90
2018-08-23T04:49:03.914Z,15.90
2018-08-23T04:51:32.312Z,15.90
2018-08-23T04:54:00.802Z,15.90
2018-08-23T04:56:29.130Z,15.90
2018-08-23T04:58:57.322Z,16.00
2018-08-23T05:01:25.542Z,16.10
2018-08-23T05:03:53.773Z,16.20
2018-08-23T05:06:22.725Z,16.20
2018-08-23T05:08:51.246Z,16.40
2018-08-23T05:11:19.425Z,16.50
2018-08-23T05:13:49.572Z,16.60
2018-08-23T05:16:18.950Z,16.70
2018-08-23T05:18:47.120Z,16.80
2018-08-23T05:21:15.302Z,16.80
2018-08-23T05:23:43.483Z,16.80
2018-08-23T05:26:19.285Z,16.90
2018-08-23T05:29:00.841Z,16.90
2018-08-23T05:31:35.438Z,17.00
2018-08-23T05:34:06.850Z,17.10
2018-08-23T05:36:35.754Z,17.20
2018-08-23T05:39:06.292Z,17.30
2018-08-23T05:41:34.465Z,17.50
2018-08-23T05:44:10.725Z,17.60
2018-08-23T05:46:43.888Z,17.80
2018-08-23T05:49:12.325Z,18.00
2018-08-23T05:51:41.882Z,18.20
2018-08-23T05:54:10.077Z,18.40
2018-08-23T05:56:38.382Z,18.60
2018-08-23T05:59:11.609Z,18.90
2018-08-23T06:01:39.837Z,19.10
2018-08-23T06:04:08.033Z,19.70
2018-08-23T06:06:36.654Z,20.70
2018-08-23T06:09:14.601Z,21.60
2018-08-23T06:11:43.010Z,22.70
2018-08-23T06:14:11.771Z,23.90
2018-08-23T06:16:45.522Z,24.80
2018-08-23T06:19:13.782Z,25.60
2018-08-23T06:21:41.974Z,26.40
2018-08-23T06:24:10.375Z,27.00
2018-08-23T06:26:45.770Z,27.60
2018-08-23T06:29:15.766Z,27.80
2018-08-23T06:31:51.422Z,27.80
2018-08-23T06:34:19.690Z,28.00
2018-08-23T06:36:48.225Z,28.30
2018-08-23T06:39:16.385Z,28.70
2018-08-23T06:41:44.573Z,29.20
2018-08-23T06:44:18.740Z,29.90
2018-08-23T06:46:47.132Z,30.20
2018-08-23T06:49:16.035Z,30.50
2018-08-23T06:51:44.206Z,30.60
2018-08-23T06:54:12.373Z,30.50
2018-08-23T06:56:40.602Z,30.80
2018-08-23T06:59:09.466Z,30.90
2018-08-23T07:01:43.010Z,30.90
2018-08-23T07:04:14.836Z,31.20
2018-08-23T07:06:43.107Z,31.40
2018-08-23T07:09:15.258Z,31.60
2018-08-23T07:11:43.664Z,31.50
2018-08-23T07:14:13.404Z,31.70
2018-08-23T07:16:42.835Z,31.40
2018-08-23T07:19:25.812Z,31.30
2018-08-23T07:24:58.437Z,31.90
2018-08-23T07:27:26.642Z,31.50
2018-08-23T07:29:56.535Z,31.40
2018-08-23T07:32:27.990Z,30.90
2018-08-23T07:35:00.780Z,30.80
2018-08-23T07:37:29.362Z,30.50
2018-08-23T07:40:03.426Z,30.00
2018-08-23T07:42:32.641Z,29.70
2018-08-23T07:45:01.887Z,30.00
2018-08-23T07:47:30.568Z,30.50
2018-08-23T07:49:59.854Z,30.50
2018-08-23T07:52:29.302Z,30.60
2018-08-23T07:54:57.414Z,30.30
2018-08-23T07:57:26.090Z,29.90
2018-08-23T07:59:57.626Z,30.20
2018-08-23T08:02:26.620Z,30.50
2018-08-23T08:04:55.191Z,30.30
2018-08-23T08:07:26.609Z,30.40
2018-08-23T08:09:55.068Z,30.30
2018-08-23T08:12:36.726Z,30.80
2018-08-23T08:15:07.101Z,30.90
2018-08-23T08:17:35.127Z,30.70
2018-08-23T08:20:07.015Z,30.90
2018-08-23T08:22:35.883Z,31.40
2018-08-23T08:25:10.399Z,31.80
2018-08-23T08:27:39.162Z,32.50
2018-08-23T08:30:10.046Z,32.70
2018-08-23T08:32:38.257Z,33.10
2018-08-23T08:35:10.677Z,33.40
2018-08-23T08:37:40.018Z,33.40
2018-08-23T08:40:12.588Z,33.20
2018-08-23T08:42:40.825Z,33.60
2018-08-23T08:45:13.677Z,33.90
2018-08-23T08:47:43.159Z,34.30
2018-08-23T08:50:11.373Z,34.30
2018-08-23T08:52:39.565Z,34.40
2018-08-23T08:55:11.577Z,34.30
2018-08-23T08:57:41.719Z,33.90
2018-08-23T09:00:10.192Z,33.60
2018-08-23T09:02:38.458Z,33.30
2018-08-23T09:05:06.798Z,33.50
2018-08-23T09:07:35.978Z,33.70
2018-08-23T09:10:04.641Z,34.30
2018-08-23T09:12:33.374Z,34.80
2018-08-23T09:15:02.982Z,34.30
2018-08-23T09:17:41.093Z,34.20
2018-08-23T09:20:11.531Z,34.00
2018-08-23T09:22:46.906Z,34.10
2018-08-23T09:25:21.622Z,34.90
2018-08-23T09:27:50.370Z,35.80
2018-08-23T09:30:24.475Z,34.80
2018-08-23T09:32:52.654Z,34.30
2018-08-23T09:35:23.466Z,34.00
2018-08-23T09:37:56.309Z,33.90
2018-08-23T09:40:25.042Z,33.70
2018-08-23T09:45:49.455Z,33.40
2018-08-23T09:48:17.602Z,33.20
2018-08-23T09:50:45.798Z,32.60
2018-08-23T09:53:19.131Z,32.40
2018-08-23T09:55:47.818Z,32.30
2018-08-23T09:58:24.555Z,32.60
2018-08-23T10:00:59.204Z,32.40
2018-08-23T10:03:33.461Z,31.50
2018-08-23T10:06:06.187Z,31.00
2018-08-23T10:08:40.269Z,30.90
2018-08-23T10:11:18.852Z,30.80
2018-08-23T10:13:52.536Z,31.80
2018-08-23T10:16:26.338Z,32.10
2018-08-23T10:19:00.361Z,31.70
2018-08-23T10:21:35.331Z,31.20
2018-08-23T10:24:14.602Z,31.00
2018-08-23T10:26:42.923Z,31.30
2018-08-23T10:29:11.033Z,31.10
2018-08-23T10:31:39.170Z,31.20
2018-08-23T10:34:07.306Z,32.10
2018-08-23T10:36:35.713Z,33.20
2018-08-23T10:39:06.367Z,33.90
2018-08-23T10:41:34.932Z,34.30
2018-08-23T10:44:03.527Z,34.70
2018-08-23T10:46:36.581Z,34.90
2018-08-23T10:49:05.480Z,35.00
2018-08-23T10:51:33.613Z,35.40
2018-08-23T10:54:01.762Z,35.70
2018-08-23T10:56:29.931Z,35.90
2018-08-23T10:58:58.098Z,35.90
2018-08-23T11:01:31.891Z,35.30
2018-08-23T11:04:05.196Z,35.30
2018-08-23T11:06:34.527Z,34.80
2018-08-23T11:09:08.262Z,34.20
2018-08-23T11:11:37.394Z,33.30
2018-08-23T11:14:11.073Z,33.10
2018-08-23T11:16:49.646Z,33.60
2018-08-23T11:19:23.174Z,33.80
2018-08-23T11:21:51.738Z,33.90
2018-08-23T11:24:19.924Z,34.00
2018-08-23T11:26:48.118Z,33.90
2018-08-23T11:29:16.365Z,34.40
2018-08-23T11:31:44.555Z,34.60
2018-08-23T11:34:13.034Z,34.60
2018-08-23T11:36:41.237Z,34.40
2018-08-23T11:39:09.680Z,34.70
2018-08-23T11:41:37.817Z,35.10
2018-08-23T11:44:06.017Z,35.40
2018-08-23T11:46:34.193Z,35.40
2018-08-23T11:49:02.776Z,35.10
2018-08-23T11:51:30.959Z,35.40
2018-08-23T12:00:00.878Z,35.20
2018-08-23T12:02:29.105Z,35.40
2018-08-23T12:04:57.606Z,35.20
2018-08-23T12:07:25.802Z,35.10
2018-08-23T12:09:54.082Z,35.50
2018-08-23T12:12:22.410Z,35.70
2018-08-23T12:14:54.584Z,35.80
2018-08-23T12:17:22.962Z,36.40
2018-08-23T12:19:51.149Z,36.60
2018-08-23T12:22:23.562Z,36.40
2018-08-23T12:24:51.738Z,36.30
2018-08-23T12:27:20.034Z,35.80
2018-08-23T12:29:50.140Z,35.00
2018-08-23T12:32:18.273Z,34.40
2018-08-23T12:34:46.468Z,34.60
2018-08-23T12:37:20.551Z,34.70
2018-08-23T12:39:54.323Z,35.10
2018-08-23T12:42:28.069Z,34.90
2018-08-23T12:44:56.229Z,35.40
2018-08-23T12:47:24.401Z,35.50
2018-08-23T12:49:57.094Z,35.30
2018-08-23T12:52:25.302Z,34.80
2018-08-23T12:54:53.514Z,35.00
2018-08-23T12:57:21.729Z,35.10
2018-08-23T12:59:49.926Z,35.40
2018-08-23T13:02:18.235Z,35.50
2018-08-23T13:04:46.301Z,35.10
2018-08-23T13:07:14.483Z,34.50
2018-08-23T13:09:42.914Z,34.10
2018-08-23T13:12:11.097Z,34.00
2018-08-23T13:14:39.282Z,34.10
2018-08-23T13:17:07.787Z,34.20
2018-08-23T13:19:35.937Z,34.20
2018-08-23T13:22:04.209Z,34.60
2018-08-23T13:24:32.934Z,34.70
2018-08-23T13:27:01.129Z,35.30
2018-08-23T13:29:29.308Z,35.60
2018-08-23T13:31:58.060Z,35.60
2018-08-23T13:34:26.310Z,35.50
2018-08-23T13:36:54.465Z,35.40
2018-08-23T13:39:22.701Z,35.10
2018-08-23T13:41:50.881Z,34.90
2018-08-23T13:44:18.997Z,35.00
2018-08-23T13:46:47.161Z,35.20
2018-08-23T13:49:15.334Z,35.50
2018-08-23T13:51:43.505Z,35.70
2018-08-23T13:54:12.408Z,36.10
2018-08-23T13:56:40.558Z,36.40
2018-08-23T13:59:08.793Z,36.10
2018-08-23T14:01:37.022Z,36.30
2018-08-23T14:04:05.745Z,36.80
2018-08-23T14:06:34.248Z,36.90
2018-08-23T14:09:03.862Z,36.90
2018-08-23T14:11:32.049Z,37.40
2018-08-23T14:14:00.510Z,37.70
2018-08-23T14:16:28.675Z,37.40
2018-08-23T14:18:56.837Z,37.00
2018-08-23T14:21:25.062Z,37.30
2018-08-23T14:23:53.249Z,38.10
2018-08-23T14:26:21.434Z,38.70
2018-08-23T14:28:49.554Z,37.60
2018-08-23T14:31:17.749Z,36.70
2018-08-23T14:33:45.910Z,36.40
2018-08-23T14:36:14.115Z,35.50
2018-08-23T14:38:42.341Z,34.60
2018-08-23T14:41:10.538Z,34.90
2018-08-23T14:43:38.682Z,35.50
2018-08-23T14:46:12.312Z,36.40
2018-08-23T14:48:49.374Z,37.30
2018-08-23T14:51:18.288Z,37.60
2018-08-23T14:53:47.378Z,37.10
2018-08-23T14:56:21.130Z,37.00
2018-08-23T14:58:49.342Z,37.50
2018-08-23T15:01:17.798Z,37.10
2018-08-23T15:03:45.958Z,36.50
2018-08-23T15:06:14.119Z,36.80
2018-08-23T15:08:42.330Z,36.70
2018-08-23T15:11:10.514Z,36.60
2018-08-23T15:13:38.672Z,36.70
2018-08-23T15:16:06.867Z,36.60
2018-08-23T15:18:40.011Z,36.70
2018-08-23T15:21:08.145Z,36.80
2018-08-23T15:23:36.325Z,36.70
2018-08-23T15:26:04.574Z,36.50
2018-08-23T15:28:32.809Z,36.20
2018-08-23T15:31:00.985Z,36.60
2018-08-23T15:33:29.398Z,36.90
2018-08-23T15:35:57.567Z,36.80
2018-08-23T15:38:25.738Z,36.80
2018-08-23T15:40:56.746Z,37.40
2018-08-23T15:43:25.042Z,37.30
2018-08-23T15:45:53.254Z,37.30
2018-08-23T15:48:21.471Z,37.00
2018-08-23T15:50:49.659Z,36.50
2018-08-23T15:53:17.856Z,36.50
2018-08-23T15:55:46.090Z,36.10
2018-08-23T15:58:14.225Z,36.00
2018-08-23T16:00:42.422Z,35.80
2018-08-23T16:03:10.620Z,35.70
2018-08-23T16:05:39.166Z,35.90
2018-08-23T16:08:07.569Z,35.60
2018-08-23T16:10:41.531Z,35.10
2018-08-23T16:13:09.674Z,35.40
2018-08-23T16:15:37.866Z,35.70
2018-08-23T16:18:11.593Z,35.90
2018-08-23T16:20:45.214Z,35.70
2018-08-23T16:23:13.431Z,35.60
2018-08-23T16:25:41.654Z,35.50
2018-08-23T16:28:09.895Z,35.70
2018-08-23T16:30:40.606Z,35.80
2018-08-23T16:33:08.858Z,36.50
2018-08-23T16:35:37.077Z,36.50
2018-08-23T16:38:05.174Z,36.20
2018-08-23T16:40:33.350Z,36.10
2018-08-23T16:43:03.051Z,35.50
2018-08-23T16:45:31.233Z,35.50
2018-08-23T16:47:59.423Z,35.20
2018-08-23T16:50:29.022Z,35.40
2018-08-23T16:52:57.620Z,35.70
2018-08-23T16:55:25.829Z,35.80
2018-08-23T16:57:54.065Z,35.70
2018-08-23T17:00:22.210Z,34.90
2018-08-23T17:02:52.944Z,34.10
2018-08-23T17:05:21.093Z,33.30
2018-08-23T17:07:49.365Z,32.70
2018-08-23T17:10:18.519Z,32.10
2018-08-23T17:12:46.698Z,31.50
2018-08-23T17:15:15.542Z,30.90
2018-08-23T17:17:48.157Z,30.40
2018-08-23T17:20:16.707Z,29.90
2018-08-23T17:22:44.910Z,29.60
2018-08-23T17:25:13.199Z,29.30
2018-08-23T17:27:41.331Z,29.00
2018-08-23T17:30:09.991Z,28.70
2018-08-23T17:32:38.169Z,28.50
2018-08-23T17:35:06.397Z,28.30
2018-08-23T17:37:34.634Z,28.10
2018-08-23T17:40:04.532Z,28.00
2018-08-23T17:42:38.205Z,27.90
2018-08-23T17:45:06.390Z,27.80
2018-08-23T17:47:34.530Z,27.60
2018-08-23T17:50:02.741Z,27.60
2018-08-23T17:52:30.889Z,27.40
2018-08-23T17:54:59.150Z,27.30
2018-08-23T17:57:27.345Z,27.20
2018-08-23T17:59:55.687Z,27.20
2018-08-23T18:02:24.027Z,27.10
2018-08-23T18:04:52.493Z,27.00
2018-08-23T18:07:20.672Z,26.90
2018-08-23T18:09:48.843Z,26.70
2018-08-23T18:12:17.078Z,26.60
2018-08-23T18:14:45.254Z,26.50
2018-08-23T18:17:13.737Z,26.40
2018-08-23T18:19:42.946Z,26.40
2018-08-23T18:22:11.141Z,26.30
2018-08-23T18:24:39.390Z,26.30
2018-08-23T18:27:07.614Z,26.30
2018-08-23T18:29:35.787Z,26.20
2018-08-23T18:32:04.036Z,26.20
2018-08-23T18:34:32.174Z,26.20
2018-08-23T18:37:00.377Z,26.20
2018-08-23T18:39:28.550Z,25.80
2018-08-23T18:41:56.743Z,25.30
2018-08-23T18:44:25.308Z,24.90
2018-08-23T18:46:53.498Z,24.70
2018-08-23T18:49:21.686Z,24.40
2018-08-23T18:51:49.902Z,23.90
2018-08-23T18:54:18.094Z,23.30
2018-08-23T18:56:46.934Z,22.80
2018-08-23T18:59:15.097Z,22.30
2018-08-23T19:01:43.294Z,21.80
2018-08-23T19:04:11.464Z,21.40
2018-08-23T19:06:39.680Z,21.00
2018-08-23T19:09:09.810Z,20.70
2018-08-23T19:11:37.974Z,20.40
2018-08-23T19:14:06.139Z,20.30
2018-08-23T19:16:40.429Z,20.30
2018-08-23T19:19:08.596Z,20.10
2018-08-23T19:21:36.879Z,20.20
2018-08-23T19:24:05.154Z,20.10
2018-08-23T19:26:33.430Z,20.00
2018-08-23T19:29:01.743Z,20.00
2018-08-23T19:31:29.990Z,20.10
2018-08-23T19:33:58.117Z,20.20
2018-08-23T19:36:27.344Z,20.20
2018-08-23T19:38:56.357Z,20.10
2018-08-23T19:41:24.558Z,20.00
2018-08-23T19:43:52.750Z,19.90
2018-08-23T19:46:26.466Z,19.90
2018-08-23T19:48:59.947Z,19.90
2018-08-23T19:51:28.838Z,19.80
2018-08-23T19:53:57.192Z,19.80
2018-08-23T19:56:25.182Z,19.90
2018-08-23T19:58:53.403Z,20.00
2018-08-23T20:01:21.615Z,20.10
2018-08-23T20:03:50.284Z,20.10
2018-08-23T20:06:18.867Z,20.10
2018-08-23T20:08:47.725Z,20.10
2018-08-23T20:11:15.937Z,20.20
2018-08-23T20:13:44.146Z,20.30
2018-08-23T20:16:12.349Z,20.20
2018-08-23T20:18:40.505Z,20.20
2018-08-23T20:21:08.678Z,20.20
2018-08-23T20:23:36.801Z,20.20
2018-08-23T20:26:05.272Z,20.20
2018-08-23T20:28:33.482Z,20.10
2018-08-23T20:31:02.752Z,20.10
2018-08-23T20:33:31.626Z,20.10
2018-08-23T20:35:59.853Z,20.20
2018-08-23T20:38:28.043Z,20.20
2018-08-23T20:41:02.618Z,20.30
2018-08-23T20:43:30.798Z,20.30
2018-08-23T20:45:58.993Z,20.30
2018-08-23T20:48:28.286Z,20.40
2018-08-23T20:50:56.533Z,20.40
2018-08-23T20:53:24.754Z,20.50
2018-08-23T20:55:52.917Z,20.50
2018-08-23T20:58:21.085Z,20.40
2018-08-23T21:00:49.258Z,20.40
2018-08-23T21:03:17.486Z,20.40
2018-08-23T21:05:45.701Z,20.50
2018-08-23T21:08:13.886Z,20.50
2018-08-23T21:10:42.032Z,20.50
2018-08-23T21:13:10.201Z,20.50
2018-08-23T21:15:38.878Z,20.40
2018-08-23T21:18:09.046Z,20.30
2018-08-23T21:20:37.217Z,20.20
2018-08-23T21:23:05.451Z,20.00
2018-08-23T21:25:33.654Z,20.00
2018-08-23T21:28:02.189Z,19.90
2018-08-23T21:30:30.396Z,19.90
2018-08-23T21:32:58.559Z,19.90
2018-08-23T21:35:26.791Z,19.90
2018-08-23T21:37:55.030Z,19.90
2018-08-23T21:40:23.193Z,19.90
2018-08-23T21:42:51.370Z,19.80
2018-08-23T21:45:19.548Z,19.80
2018-08-23T21:47:47.710Z,19.60
2018-08-23T21:50:15.925Z,19.50
2018-08-23T21:52:44.123Z,19.40
2018-08-23T21:55:12.342Z,19.30
2018-08-23T21:57:40.538Z,19.20
2018-08-23T22:00:08.945Z,19.10
2018-08-23T22:02:37.482Z,19.10
2018-08-23T22:05:05.741Z,19.10
2018-08-23T22:07:33.998Z,19.10
2018-08-23T22:10:03.133Z,19.10
2018-08-23T22:12:31.226Z,19.10
2018-08-23T22:14:59.453Z,19.10
2018-08-23T22:17:27.649Z,19.00
2018-08-23T22:19:56.534Z,19.00
2018-08-23T22:22:24.661Z,19.00
2018-08-23T22:24:52.822Z,19.00
2018-08-23T22:27:21.073Z,18.90
2018-08-23T22:29:49.261Z,18.90
2018-08-23T22:32:17.408Z,18.80
2018-08-23T22:34:45.590Z,18.70
2018-08-23T22:37:13.743Z,18.70
2018-08-23T22:39:41.966Z,18.70
2018-08-23T22:42:10.084Z,18.60
2018-08-23T22:44:38.262Z,18.60
2018-08-23T22:47:06.430Z,18.50
2018-08-23T22:49:34.631Z,18.50
2018-08-23T22:52:02.855Z,18.60
2018-08-23T22:54:31.080Z,18.50
2018-08-23T22:56:59.242Z,18.50
2018-08-23T22:59:27.442Z,18.50
2018-08-23T23:01:55.666Z,18.50
2018-08-23T23:04:27.575Z,18.50
2018-08-23T23:06:56.717Z,18.40
2018-08-23T23:09:24.902Z,18.40
2018-08-23T23:11:53.496Z,18.40
2018-08-23T23:14:21.706Z,18.40
2018-08-23T23:16:53.861Z,18.50
2018-08-23T23:19:22.413Z,18.50
2018-08-23T23:21:50.622Z,18.50
2018-08-23T23:24:24.115Z,18.50
2018-08-23T23:26:52.353Z,18.50
2018-08-23T23:29:20.741Z,18.60
2018-08-23T23:31:48.907Z,18.70
2018-08-23T23:34:17.085Z,18.70
2018-08-23T23:36:45.293Z,18.70
2018-08-23T23:39:13.494Z,18.70
2018-08-23T23:41:41.665Z,18.70
2018-08-23T23:44:09.902Z,18.70
2018-08-23T23:46:38.673Z,18.70
2018-08-23T23:49:07.359Z,18.70
2018-08-23T23:51:35.568Z,18.60
2018-08-23T23:54:03.820Z,18.60
2018-08-23T23:56:33.883Z,18.50
2018-08-23T23:59:02.078Z,18.40
